sensor_id;sensor_type;location;lat;lon;timestamp;P1;durP1;ratioP1;P2;durP2;ratioP2
50002;SDS011;35889;51.442;6.408;2023-03-21T00:00:22;0.70;;;0.70;;
50002;SDS011;35889;51.442;6.408;2023-03-21T00:02:48;0.70;;;0.70;;
50002;SDS011;35889;51.442;6.408;2023-03-21T00:05:13;0.73;;;0.73;;
50002;SDS011;35889;51.442;6.408;2023-03-21T00:07:39;0.70;;;0.70;;
50002;SDS011;35889;51.442;6.408;2023-03-21T00:10:04;0.70;;;0.70;;
50002;SDS011;35889;51.442;6.408;2023-03-21T00:12:30;0.65;;;0.65;;
50002;SDS011;35889;51.442;6.408;2023-03-21T00:14:59;0.80;;;0.80;;
50002;SDS011;35889;51.442;6.408;2023-03-21T00:17:29;0.70;;;0.70;;
50002;SDS011;35889;51.442;6.408;2023-03-21T00:19:59;0.70;;;0.70;;
50002;SDS011;35889;51.442;6.408;2023-03-21T00:22:26;0.70;;;0.70;;
50002;SDS011;35889;51.442;6.408;2023-03-21T00:24:52;0.70;;;0.70;;
50002;SDS011;35889;51.442;6.408;2023-03-21T00:27:18;0.70;;;0.70;;
50002;SDS011;35889;51.442;6.408;2023-03-21T00:29:44;0.70;;;0.70;;
50002;SDS011;35889;51.442;6.408;2023-03-21T00:32:17;0.70;;;0.70;;
50002;SDS011;35889;51.442;6.408;2023-03-21T00:34:46;0.70;;;0.70;;
50002;SDS011;35889;51.442;6.408;2023-03-21T00:37:14;0.70;;;0.70;;
50002;SDS011;35889;51.442;6.408;2023-03-21T00:39:41;0.70;;;0.70;;
50002;SDS011;35889;51.442;6.408;2023-03-21T00:42:08;0.70;;;0.70;;
50002;SDS011;35889;51.442;6.408;2023-03-21T00:44:34;0.70;;;0.70;;
50002;SDS011;35889;51.442;6.408;2023-03-21T00:47:03;0.70;;;0.70;;
50002;SDS011;35889;51.442;6.408;2023-03-21T00:49:32;0.70;;;0.70;;
50002;SDS011;35889;51.442;6.408;2023-03-21T00:52:00;0.70;;;0.70;;
50002;SDS011;35889;51.442;6.408;2023-03-21T00:54:31;0.60;;;0.60;;
50002;SDS011;35889;51.442;6.408;2023-03-21T00:56:57;0.70;;;0.70;;
50002;SDS011;35889;51.442;6.408;2023-03-21T00:59:22;0.77;;;0.77;;
50002;SDS011;35889;51.442;6.408;2023-03-21T01:01:48;0.70;;;0.70;;
50002;SDS011;35889;51.442;6.408;2023-03-21T01:04:13;0.70;;;0.70;;
50002;SDS011;35889;51.442;6.408;2023-03-21T01:06:41;0.70;;;0.70;;
50002;SDS011;35889;51.442;6.408;2023-03-21T01:09:11;0.70;;;0.70;;
50002;SDS011;35889;51.442;6.408;2023-03-21T01:11:42;0.70;;;0.70;;
50002;SDS011;35889;51.442;6.408;2023-03-21T01:14:10;0.70;;;0.70;;
50002;SDS011;35889;51.442;6.408;2023-03-21T01:16:36;0.60;;;0.60;;
50002;SDS011;35889;51.442;6.408;2023-03-21T01:19:02;0.70;;;0.70;;
50002;SDS011;35889;51.442;6.408;2023-03-21T01:21:28;0.70;;;0.70;;
50002;SDS011;35889;51.442;6.408;2023-03-21T01:23:54;0.70;;;0.70;;
50002;SDS011;35889;51.442;6.408;2023-03-21T01:26:19;0.70;;;0.70;;
50002;SDS011;35889;51.442;6.408;2023-03-21T01:28:45;0.70;;;0.70;;
50002;SDS011;35889;51.442;6.408;2023-03-21T01:31:14;0.80;;;0.80;;
50002;SDS011;35889;51.442;6.408;2023-03-21T01:33:41;0.70;;;0.70;;
50002;SDS011;35889;51.442;6.408;2023-03-21T01:36:07;0.70;;;0.70;;
50002;SDS011;35889;51.442;6.408;2023-03-21T01:38:34;0.70;;;0.70;;
50002;SDS011;35889;51.442;6.408;2023-03-21T01:41:00;0.70;;;0.70;;
50002;SDS011;35889;51.442;6.408;2023-03-21T01:43:33;0.70;;;0.70;;
50002;SDS011;35889;51.442;6.408;2023-03-21T01:49:28;0.65;;;0.65;;
50002;SDS011;35889;51.442;6.408;2023-03-21T01:52:33;0.70;;;0.70;;
50002;SDS011;35889;51.442;6.408;2023-03-21T01:55:03;0.70;;;0.70;;
50002;SDS011;35889;51.442;6.408;2023-03-21T01:57:39;0.70;;;0.70;;
50002;SDS011;35889;51.442;6.408;2023-03-21T02:00:10;0.70;;;0.70;;
50002;SDS011;35889;51.442;6.408;2023-03-21T02:02:52;0.70;;;0.70;;
50002;SDS011;35889;51.442;6.408;2023-03-21T02:08:58;0.70;;;0.70;;
50002;SDS011;35889;51.442;6.408;2023-03-21T02:11:28;0.70;;;0.70;;
50002;SDS011;35889;51.442;6.408;2023-03-21T02:13:54;0.70;;;0.70;;
50002;SDS011;35889;51.442;6.408;2023-03-21T02:16:24;0.70;;;0.70;;
50002;SDS011;35889;51.442;6.408;2023-03-21T02:22:02;0.70;;;0.70;;
50002;SDS011;35889;51.442;6.408;2023-03-21T02:25:08;0.70;;;0.70;;
50002;SDS011;35889;51.442;6.408;2023-03-21T02:28:06;0.65;;;0.65;;
50002;SDS011;35889;51.442;6.408;2023-03-21T02:38:59;0.60;;;0.60;;
50002;SDS011;35889;51.442;6.408;2023-03-21T02:44:28;0.70;;;0.70;;
50002;SDS011;35889;51.442;6.408;2023-03-21T02:47:03;0.70;;;0.70;;
50002;SDS011;35889;51.442;6.408;2023-03-21T02:49:34;0.80;;;0.80;;
50002;SDS011;35889;51.442;6.408;2023-03-21T02:52:12;0.70;;;0.70;;
50002;SDS011;35889;51.442;6.408;2023-03-21T02:54:40;0.70;;;0.70;;
50002;SDS011;35889;51.442;6.408;2023-03-21T02:57:08;0.70;;;0.70;;
50002;SDS011;35889;51.442;6.408;2023-03-21T02:59:34;0.70;;;0.70;;
50002;SDS011;35889;51.442;6.408;2023-03-21T03:02:02;0.70;;;0.70;;
50002;SDS011;35889;51.442;6.408;2023-03-21T03:04:28;0.70;;;0.70;;
50002;SDS011;35889;51.442;6.408;2023-03-21T03:15:01;0.70;;;0.70;;
50002;SDS011;35889;51.442;6.408;2023-03-21T03:17:40;0.65;;;0.65;;
50002;SDS011;35889;51.442;6.408;2023-03-21T03:22:51;0.68;;;0.68;;
50002;SDS011;35889;51.442;6.408;2023-03-21T03:25:44;0.70;;;0.70;;
50002;SDS011;35889;51.442;6.408;2023-03-21T03:28:38;0.70;;;0.70;;
50002;SDS011;35889;51.442;6.408;2023-03-21T03:31:12;0.70;;;0.70;;
50002;SDS011;35889;51.442;6.408;2023-03-21T03:33:44;0.70;;;0.70;;
50002;SDS011;35889;51.442;6.408;2023-03-21T03:36:12;0.75;;;0.75;;
50002;SDS011;35889;51.442;6.408;2023-03-21T03:38:38;0.70;;;0.70;;
50002;SDS011;35889;51.442;6.408;2023-03-21T03:41:09;0.70;;;0.70;;
50002;SDS011;35889;51.442;6.408;2023-03-21T03:43:45;0.70;;;0.70;;
50002;SDS011;35889;51.442;6.408;2023-03-21T03:46:15;0.70;;;0.70;;
50002;SDS011;35889;51.442;6.408;2023-03-21T03:48:48;0.70;;;0.70;;
50002;SDS011;35889;51.442;6.408;2023-03-21T03:51:20;0.70;;;0.70;;
50002;SDS011;35889;51.442;6.408;2023-03-21T03:54:03;0.70;;;0.70;;
50002;SDS011;35889;51.442;6.408;2023-03-21T03:56:32;0.70;;;0.70;;
50002;SDS011;35889;51.442;6.408;2023-03-21T03:58:57;0.70;;;0.70;;
50002;SDS011;35889;51.442;6.408;2023-03-21T04:01:40;0.70;;;0.70;;
50002;SDS011;35889;51.442;6.408;2023-03-21T04:04:06;0.60;;;0.60;;
50002;SDS011;35889;51.442;6.408;2023-03-21T04:06:31;0.70;;;0.70;;
50002;SDS011;35889;51.442;6.408;2023-03-21T04:08:57;0.70;;;0.70;;
50002;SDS011;35889;51.442;6.408;2023-03-21T04:11:23;0.70;;;0.70;;
50002;SDS011;35889;51.442;6.408;2023-03-21T04:13:51;0.70;;;0.70;;
50002;SDS011;35889;51.442;6.408;2023-03-21T04:16:21;0.60;;;0.60;;
50002;SDS011;35889;51.442;6.408;2023-03-21T04:18:47;0.70;;;0.70;;
50002;SDS011;35889;51.442;6.408;2023-03-21T04:21:16;0.70;;;0.70;;
50002;SDS011;35889;51.442;6.408;2023-03-21T04:23:41;0.70;;;0.70;;
50002;SDS011;35889;51.442;6.408;2023-03-21T04:26:07;0.70;;;0.70;;
50002;SDS011;35889;51.442;6.408;2023-03-21T04:28:37;0.70;;;0.70;;
50002;SDS011;35889;51.442;6.408;2023-03-21T04:31:18;0.70;;;0.70;;
50002;SDS011;35889;51.442;6.408;2023-03-21T04:33:47;0.70;;;0.70;;
50002;SDS011;35889;51.442;6.408;2023-03-21T04:36:14;0.70;;;0.70;;
50002;SDS011;35889;51.442;6.408;2023-03-21T04:38:52;0.70;;;0.70;;
50002;SDS011;35889;51.442;6.408;2023-03-21T04:41:18;0.70;;;0.70;;
50002;SDS011;35889;51.442;6.408;2023-03-21T04:43:43;0.70;;;0.70;;
50002;SDS011;35889;51.442;6.408;2023-03-21T04:46:10;0.70;;;0.70;;
50002;SDS011;35889;51.442;6.408;2023-03-21T04:48:36;0.70;;;0.70;;
50002;SDS011;35889;51.442;6.408;2023-03-21T04:51:02;0.70;;;0.70;;
50002;SDS011;35889;51.442;6.408;2023-03-21T04:53:28;0.70;;;0.70;;
50002;SDS011;35889;51.442;6.408;2023-03-21T04:55:54;0.70;;;0.70;;
50002;SDS011;35889;51.442;6.408;2023-03-21T04:58:22;0.70;;;0.70;;
50002;SDS011;35889;51.442;6.408;2023-03-21T05:00:48;0.70;;;0.70;;
50002;SDS011;35889;51.442;6.408;2023-03-21T05:03:17;0.70;;;0.70;;
50002;SDS011;35889;51.442;6.408;2023-03-21T05:05:46;0.70;;;0.70;;
50002;SDS011;35889;51.442;6.408;2023-03-21T05:08:12;0.80;;;0.80;;
50002;SDS011;35889;51.442;6.408;2023-03-21T05:10:38;0.70;;;0.70;;
50002;SDS011;35889;51.442;6.408;2023-03-21T05:13:03;0.70;;;0.70;;
50002;SDS011;35889;51.442;6.408;2023-03-21T05:15:31;0.70;;;0.70;;
50002;SDS011;35889;51.442;6.408;2023-03-21T05:17:56;0.70;;;0.70;;
50002;SDS011;35889;51.442;6.408;2023-03-21T05:20:37;0.70;;;0.70;;
50002;SDS011;35889;51.442;6.408;2023-03-21T05:25:36;0.70;;;0.70;;
50002;SDS011;35889;51.442;6.408;2023-03-21T05:28:10;0.70;;;0.70;;
50002;SDS011;35889;51.442;6.408;2023-03-21T05:30:40;0.60;;;0.60;;
50002;SDS011;35889;51.442;6.408;2023-03-21T05:33:06;0.70;;;0.70;;
50002;SDS011;35889;51.442;6.408;2023-03-21T05:35:31;0.70;;;0.70;;
50002;SDS011;35889;51.442;6.408;2023-03-21T05:38:00;0.70;;;0.70;;
50002;SDS011;35889;51.442;6.408;2023-03-21T05:40:30;0.70;;;0.70;;
50002;SDS011;35889;51.442;6.408;2023-03-21T05:42:57;0.70;;;0.70;;
50002;SDS011;35889;51.442;6.408;2023-03-21T05:45:23;0.70;;;0.70;;
50002;SDS011;35889;51.442;6.408;2023-03-21T05:47:49;0.70;;;0.70;;
50002;SDS011;35889;51.442;6.408;2023-03-21T05:50:15;0.70;;;0.70;;
50002;SDS011;35889;51.442;6.408;2023-03-21T05:52:47;0.70;;;0.70;;
50002;SDS011;35889;51.442;6.408;2023-03-21T05:55:13;0.73;;;0.73;;
50002;SDS011;35889;51.442;6.408;2023-03-21T05:57:40;0.70;;;0.70;;
50002;SDS011;35889;51.442;6.408;2023-03-21T06:02:42;0.70;;;0.70;;
50002;SDS011;35889;51.442;6.408;2023-03-21T06:05:27;0.70;;;0.70;;
50002;SDS011;35889;51.442;6.408;2023-03-21T06:07:53;0.70;;;0.70;;
50002;SDS011;35889;51.442;6.408;2023-03-21T06:10:19;0.70;;;0.70;;
50002;SDS011;35889;51.442;6.408;2023-03-21T06:12:47;0.70;;;0.70;;
50002;SDS011;35889;51.442;6.408;2023-03-21T06:15:27;0.70;;;0.70;;
50002;SDS011;35889;51.442;6.408;2023-03-21T06:18:00;0.70;;;0.70;;
50002;SDS011;35889;51.442;6.408;2023-03-21T06:20:27;0.80;;;0.80;;
50002;SDS011;35889;51.442;6.408;2023-03-21T06:23:00;0.70;;;0.70;;
50002;SDS011;35889;51.442;6.408;2023-03-21T06:25:27;0.70;;;0.70;;
50002;SDS011;35889;51.442;6.408;2023-03-21T06:27:53;0.70;;;0.70;;
50002;SDS011;35889;51.442;6.408;2023-03-21T06:30:19;0.70;;;0.70;;
50002;SDS011;35889;51.442;6.408;2023-03-21T06:33:01;0.70;;;0.70;;
50002;SDS011;35889;51.442;6.408;2023-03-21T06:35:27;0.70;;;0.70;;
50002;SDS011;35889;51.442;6.408;2023-03-21T06:37:53;0.75;;;0.75;;
50002;SDS011;35889;51.442;6.408;2023-03-21T06:40:20;0.70;;;0.70;;
50002;SDS011;35889;51.442;6.408;2023-03-21T06:42:45;0.70;;;0.70;;
50002;SDS011;35889;51.442;6.408;2023-03-21T06:45:13;0.70;;;0.70;;
50002;SDS011;35889;51.442;6.408;2023-03-21T06:47:38;0.70;;;0.70;;
50002;SDS011;35889;51.442;6.408;2023-03-21T06:50:10;0.68;;;0.68;;
50002;SDS011;35889;51.442;6.408;2023-03-21T06:52:40;0.60;;;0.60;;
50002;SDS011;35889;51.442;6.408;2023-03-21T06:55:05;0.70;;;0.70;;
50002;SDS011;35889;51.442;6.408;2023-03-21T06:57:31;0.70;;;0.70;;
50002;SDS011;35889;51.442;6.408;2023-03-21T06:59:57;0.70;;;0.70;;
50002;SDS011;35889;51.442;6.408;2023-03-21T07:02:23;0.70;;;0.70;;
50002;SDS011;35889;51.442;6.408;2023-03-21T07:05:06;0.70;;;0.70;;
50002;SDS011;35889;51.442;6.408;2023-03-21T07:07:32;0.70;;;0.70;;
50002;SDS011;35889;51.442;6.408;2023-03-21T07:09:57;0.70;;;0.70;;
50002;SDS011;35889;51.442;6.408;2023-03-21T07:12:26;0.80;;;0.80;;
50002;SDS011;35889;51.442;6.408;2023-03-21T07:15:13;0.70;;;0.70;;
50002;SDS011;35889;51.442;6.408;2023-03-21T07:17:41;0.70;;;0.70;;
50002;SDS011;35889;51.442;6.408;2023-03-21T07:20:06;0.80;;;0.80;;
50002;SDS011;35889;51.442;6.408;2023-03-21T07:22:33;0.80;;;0.80;;
50002;SDS011;35889;51.442;6.408;2023-03-21T07:24:59;0.70;;;0.70;;
50002;SDS011;35889;51.442;6.408;2023-03-21T07:27:25;0.70;;;0.70;;
50002;SDS011;35889;51.442;6.408;2023-03-21T07:29:50;0.70;;;0.70;;
50002;SDS011;35889;51.442;6.408;2023-03-21T07:32:16;0.70;;;0.70;;
50002;SDS011;35889;51.442;6.408;2023-03-21T07:34:41;0.60;;;0.60;;
50002;SDS011;35889;51.442;6.408;2023-03-21T07:37:07;0.70;;;0.70;;
50002;SDS011;35889;51.442;6.408;2023-03-21T07:39:32;0.70;;;0.70;;
50002;SDS011;35889;51.442;6.408;2023-03-21T07:41:59;0.70;;;0.70;;
50002;SDS011;35889;51.442;6.408;2023-03-21T07:44:37;0.70;;;0.70;;
50002;SDS011;35889;51.442;6.408;2023-03-21T07:47:03;0.70;;;0.70;;
50002;SDS011;35889;51.442;6.408;2023-03-21T07:49:30;0.70;;;0.70;;
50002;SDS011;35889;51.442;6.408;2023-03-21T07:51:55;0.70;;;0.70;;
50002;SDS011;35889;51.442;6.408;2023-03-21T07:54:21;0.70;;;0.70;;
50002;SDS011;35889;51.442;6.408;2023-03-21T07:56:47;0.70;;;0.70;;
50002;SDS011;35889;51.442;6.408;2023-03-21T07:59:13;0.70;;;0.70;;
50002;SDS011;35889;51.442;6.408;2023-03-21T08:01:38;0.70;;;0.70;;
50002;SDS011;35889;51.442;6.408;2023-03-21T08:04:04;0.70;;;0.70;;
50002;SDS011;35889;51.442;6.408;2023-03-21T08:06:29;0.70;;;0.70;;
50002;SDS011;35889;51.442;6.408;2023-03-21T08:08:57;0.70;;;0.70;;
50002;SDS011;35889;51.442;6.408;2023-03-21T08:11:22;0.63;;;0.63;;
50002;SDS011;35889;51.442;6.408;2023-03-21T08:13:48;0.70;;;0.70;;
50002;SDS011;35889;51.442;6.408;2023-03-21T08:16:15;0.75;;;0.75;;
50002;SDS011;35889;51.442;6.408;2023-03-21T08:18:41;0.80;;;0.80;;
50002;SDS011;35889;51.442;6.408;2023-03-21T08:21:07;0.70;;;0.70;;
50002;SDS011;35889;51.442;6.408;2023-03-21T08:23:32;0.70;;;0.70;;
50002;SDS011;35889;51.442;6.408;2023-03-21T08:25:58;0.70;;;0.70;;
50002;SDS011;35889;51.442;6.408;2023-03-21T08:28:24;0.70;;;0.70;;
50002;SDS011;35889;51.442;6.408;2023-03-21T08:30:49;0.70;;;0.70;;
50002;SDS011;35889;51.442;6.408;2023-03-21T08:33:15;0.70;;;0.70;;
50002;SDS011;35889;51.442;6.408;2023-03-21T08:35:42;0.70;;;0.70;;
50002;SDS011;35889;51.442;6.408;2023-03-21T08:38:08;0.70;;;0.70;;
50002;SDS011;35889;51.442;6.408;2023-03-21T08:40:34;0.75;;;0.75;;
50002;SDS011;35889;51.442;6.408;2023-03-21T08:43:00;0.70;;;0.70;;
50002;SDS011;35889;51.442;6.408;2023-03-21T08:45:25;0.70;;;0.70;;
50002;SDS011;35889;51.442;6.408;2023-03-21T08:47:51;0.70;;;0.70;;
50002;SDS011;35889;51.442;6.408;2023-03-21T08:50:18;0.65;;;0.65;;
50002;SDS011;35889;51.442;6.408;2023-03-21T08:52:45;0.77;;;0.77;;
50002;SDS011;35889;51.442;6.408;2023-03-21T08:55:11;0.70;;;0.70;;
50002;SDS011;35889;51.442;6.408;2023-03-21T08:57:37;0.70;;;0.70;;
50002;SDS011;35889;51.442;6.408;2023-03-21T09:00:03;0.70;;;0.70;;
50002;SDS011;35889;51.442;6.408;2023-03-21T09:02:41;0.68;;;0.68;;
50002;SDS011;35889;51.442;6.408;2023-03-21T09:05:08;0.70;;;0.70;;
50002;SDS011;35889;51.442;6.408;2023-03-21T09:07:36;0.70;;;0.70;;
50002;SDS011;35889;51.442;6.408;2023-03-21T09:10:02;0.77;;;0.77;;
50002;SDS011;35889;51.442;6.408;2023-03-21T09:12:29;0.80;;;0.80;;
50002;SDS011;35889;51.442;6.408;2023-03-21T09:14:55;0.70;;;0.70;;
50002;SDS011;35889;51.442;6.408;2023-03-21T09:17:21;0.70;;;0.70;;
50002;SDS011;35889;51.442;6.408;2023-03-21T09:19:46;0.70;;;0.70;;
50002;SDS011;35889;51.442;6.408;2023-03-21T09:22:13;0.80;;;0.80;;
50002;SDS011;35889;51.442;6.408;2023-03-21T09:24:41;0.70;;;0.70;;
50002;SDS011;35889;51.442;6.408;2023-03-21T09:27:12;0.60;;;0.60;;
50002;SDS011;35889;51.442;6.408;2023-03-21T09:29:38;0.70;;;0.70;;
50002;SDS011;35889;51.442;6.408;2023-03-21T09:32:05;0.73;;;0.73;;
50002;SDS011;35889;51.442;6.408;2023-03-21T09:34:31;0.70;;;0.70;;
50002;SDS011;35889;51.442;6.408;2023-03-21T09:36:56;0.80;;;0.80;;
50002;SDS011;35889;51.442;6.408;2023-03-21T09:39:22;0.73;;;0.73;;
50002;SDS011;35889;51.442;6.408;2023-03-21T09:41:51;0.70;;;0.70;;
50002;SDS011;35889;51.442;6.408;2023-03-21T09:44:23;0.77;;;0.77;;
50002;SDS011;35889;51.442;6.408;2023-03-21T09:47:08;0.70;;;0.70;;
50002;SDS011;35889;51.442;6.408;2023-03-21T09:49:44;0.70;;;0.70;;
50002;SDS011;35889;51.442;6.408;2023-03-21T09:52:56;0.70;;;0.70;;
50002;SDS011;35889;51.442;6.408;2023-03-21T09:55:22;0.70;;;0.70;;
50002;SDS011;35889;51.442;6.408;2023-03-21T09:57:54;0.77;;;0.77;;
50002;SDS011;35889;51.442;6.408;2023-03-21T10:00:37;0.70;;;0.70;;
50002;SDS011;35889;51.442;6.408;2023-03-21T10:03:23;0.77;;;0.77;;
50002;SDS011;35889;51.442;6.408;2023-03-21T10:05:52;0.70;;;0.70;;
50002;SDS011;35889;51.442;6.408;2023-03-21T10:08:30;0.73;;;0.73;;
50002;SDS011;35889;51.442;6.408;2023-03-21T10:11:05;0.70;;;0.70;;
50002;SDS011;35889;51.442;6.408;2023-03-21T10:13:54;0.60;;;0.60;;
50002;SDS011;35889;51.442;6.408;2023-03-21T10:16:25;0.70;;;0.70;;
50002;SDS011;35889;51.442;6.408;2023-03-21T10:18:59;0.70;;;0.70;;
50002;SDS011;35889;51.442;6.408;2023-03-21T10:21:28;0.70;;;0.70;;
50002;SDS011;35889;51.442;6.408;2023-03-21T10:23:54;0.70;;;0.70;;
50002;SDS011;35889;51.442;6.408;2023-03-21T10:26:23;0.80;;;0.80;;
50002;SDS011;35889;51.442;6.408;2023-03-21T10:28:51;0.70;;;0.70;;
50002;SDS011;35889;51.442;6.408;2023-03-21T10:31:20;0.80;;;0.80;;
50002;SDS011;35889;51.442;6.408;2023-03-21T10:33:49;0.70;;;0.70;;
50002;SDS011;35889;51.442;6.408;2023-03-21T10:36:16;0.80;;;0.80;;
50002;SDS011;35889;51.442;6.408;2023-03-21T10:38:45;0.80;;;0.80;;
50002;SDS011;35889;51.442;6.408;2023-03-21T10:41:13;0.80;;;0.80;;
50002;SDS011;35889;51.442;6.408;2023-03-21T10:43:39;0.77;;;0.77;;
50002;SDS011;35889;51.442;6.408;2023-03-21T10:46:06;0.80;;;0.80;;
50002;SDS011;35889;51.442;6.408;2023-03-21T10:48:37;0.80;;;0.80;;
50002;SDS011;35889;51.442;6.408;2023-03-21T10:51:04;0.70;;;0.70;;
50002;SDS011;35889;51.442;6.408;2023-03-21T10:53:33;0.70;;;0.70;;
50002;SDS011;35889;51.442;6.408;2023-03-21T10:56:00;0.80;;;0.80;;
50002;SDS011;35889;51.442;6.408;2023-03-21T10:58:27;0.80;;;0.80;;
50002;SDS011;35889;51.442;6.408;2023-03-21T11:01:20;0.80;;;0.80;;
50002;SDS011;35889;51.442;6.408;2023-03-21T11:03:46;0.80;;;0.80;;
50002;SDS011;35889;51.442;6.408;2023-03-21T11:06:13;0.80;;;0.80;;
50002;SDS011;35889;51.442;6.408;2023-03-21T11:08:45;0.80;;;0.80;;
50002;SDS011;35889;51.442;6.408;2023-03-21T11:11:36;0.70;;;0.70;;
50002;SDS011;35889;51.442;6.408;2023-03-21T11:14:04;0.80;;;0.80;;
50002;SDS011;35889;51.442;6.408;2023-03-21T11:19:01;0.88;;;0.88;;
50002;SDS011;35889;51.442;6.408;2023-03-21T11:21:35;0.80;;;0.80;;
50002;SDS011;35889;51.442;6.408;2023-03-21T11:24:01;0.70;;;0.70;;
50002;SDS011;35889;51.442;6.408;2023-03-21T11:26:29;0.80;;;0.80;;
50002;SDS011;35889;51.442;6.408;2023-03-21T11:28:56;0.80;;;0.80;;
50002;SDS011;35889;51.442;6.408;2023-03-21T11:31:22;0.80;;;0.80;;
50002;SDS011;35889;51.442;6.408;2023-03-21T11:34:04;0.80;;;0.80;;
50002;SDS011;35889;51.442;6.408;2023-03-21T11:36:34;0.73;;;0.73;;
50002;SDS011;35889;51.442;6.408;2023-03-21T11:39:18;0.80;;;0.80;;
50002;SDS011;35889;51.442;6.408;2023-03-21T11:41:52;0.70;;;0.70;;
50002;SDS011;35889;51.442;6.408;2023-03-21T11:44:28;0.80;;;0.80;;
50002;SDS011;35889;51.442;6.408;2023-03-21T11:46:56;0.80;;;0.80;;
50002;SDS011;35889;51.442;6.408;2023-03-21T11:49:22;0.70;;;0.70;;
50002;SDS011;35889;51.442;6.408;2023-03-21T11:54:56;0.70;;;0.70;;
50002;SDS011;35889;51.442;6.408;2023-03-21T11:57:53;0.80;;;0.80;;
50002;SDS011;35889;51.442;6.408;2023-03-21T12:00:21;0.80;;;0.80;;
50002;SDS011;35889;51.442;6.408;2023-03-21T12:05:34;0.80;;;0.80;;
50002;SDS011;35889;51.442;6.408;2023-03-21T12:08:08;0.80;;;0.80;;
50002;SDS011;35889;51.442;6.408;2023-03-21T12:13:40;0.80;;;0.80;;
50002;SDS011;35889;51.442;6.408;2023-03-21T12:16:25;0.80;;;0.80;;
50002;SDS011;35889;51.442;6.408;2023-03-21T12:24:37;0.90;;;0.90;;
50002;SDS011;35889;51.442;6.408;2023-03-21T12:27:21;0.90;;;0.90;;
50002;SDS011;35889;51.442;6.408;2023-03-21T12:32:58;0.80;;;0.80;;
50002;SDS011;35889;51.442;6.408;2023-03-21T12:38:42;0.80;;;0.80;;
50002;SDS011;35889;51.442;6.408;2023-03-21T12:51:40;0.80;;;0.80;;
50002;SDS011;35889;51.442;6.408;2023-03-21T12:54:25;0.90;;;0.90;;
50002;SDS011;35889;51.442;6.408;2023-03-21T12:56:55;0.80;;;0.80;;
50002;SDS011;35889;51.442;6.408;2023-03-21T12:59:28;0.80;;;0.80;;
50002;SDS011;35889;51.442;6.408;2023-03-21T13:01:58;0.80;;;0.80;;
50002;SDS011;35889;51.442;6.408;2023-03-21T13:04:32;0.82;;;0.82;;
50002;SDS011;35889;51.442;6.408;2023-03-21T13:07:02;0.90;;;0.90;;
50002;SDS011;35889;51.442;6.408;2023-03-21T13:09:35;0.90;;;0.90;;
50002;SDS011;35889;51.442;6.408;2023-03-21T13:15:00;0.80;;;0.80;;
50002;SDS011;35889;51.442;6.408;2023-03-21T13:17:33;0.80;;;0.80;;
50002;SDS011;35889;51.442;6.408;2023-03-21T13:22:55;0.80;;;0.80;;
50002;SDS011;35889;51.442;6.408;2023-03-21T13:25:21;0.80;;;0.80;;
50002;SDS011;35889;51.442;6.408;2023-03-21T13:27:54;0.80;;;0.80;;
50002;SDS011;35889;51.442;6.408;2023-03-21T13:30:26;0.80;;;0.80;;
50002;SDS011;35889;51.442;6.408;2023-03-21T13:33:14;0.80;;;0.80;;
50002;SDS011;35889;51.442;6.408;2023-03-21T13:35:53;0.80;;;0.80;;
50002;SDS011;35889;51.442;6.408;2023-03-21T13:38:31;0.80;;;0.80;;
50002;SDS011;35889;51.442;6.408;2023-03-21T13:40:58;0.80;;;0.80;;
50002;SDS011;35889;51.442;6.408;2023-03-21T13:51:08;0.80;;;0.80;;
50002;SDS011;35889;51.442;6.408;2023-03-21T13:53:36;0.80;;;0.80;;
50002;SDS011;35889;51.442;6.408;2023-03-21T14:03:47;0.80;;;0.80;;
50002;SDS011;35889;51.442;6.408;2023-03-21T14:06:14;0.80;;;0.80;;
50002;SDS011;35889;51.442;6.408;2023-03-21T14:08:40;0.90;;;0.90;;
50002;SDS011;35889;51.442;6.408;2023-03-21T14:11:11;0.80;;;0.80;;
50002;SDS011;35889;51.442;6.408;2023-03-21T14:13:40;0.80;;;0.80;;
50002;SDS011;35889;51.442;6.408;2023-03-21T14:16:08;0.80;;;0.80;;
50002;SDS011;35889;51.442;6.408;2023-03-21T14:18:43;0.75;;;0.75;;
50002;SDS011;35889;51.442;6.408;2023-03-21T14:21:16;0.70;;;0.70;;
50002;SDS011;35889;51.442;6.408;2023-03-21T14:23:44;0.70;;;0.70;;
50002;SDS011;35889;51.442;6.408;2023-03-21T14:26:10;0.90;;;0.90;;
50002;SDS011;35889;51.442;6.408;2023-03-21T14:28:36;0.90;;;0.90;;
50002;SDS011;35889;51.442;6.408;2023-03-21T14:31:03;0.90;;;0.90;;
50002;SDS011;35889;51.442;6.408;2023-03-21T14:33:34;1.00;;;1.00;;
50002;SDS011;35889;51.442;6.408;2023-03-21T14:36:09;0.80;;;0.80;;
50002;SDS011;35889;51.442;6.408;2023-03-21T14:38:38;1.20;;;1.20;;
50002;SDS011;35889;51.442;6.408;2023-03-21T14:41:05;1.00;;;1.00;;
50002;SDS011;35889;51.442;6.408;2023-03-21T14:43:31;0.80;;;0.80;;
50002;SDS011;35889;51.442;6.408;2023-03-21T14:45:58;0.90;;;0.90;;
50002;SDS011;35889;51.442;6.408;2023-03-21T14:48:31;1.10;;;1.10;;
50002;SDS011;35889;51.442;6.408;2023-03-21T14:51:02;0.90;;;0.90;;
50002;SDS011;35889;51.442;6.408;2023-03-21T14:53:31;0.90;;;0.90;;
50002;SDS011;35889;51.442;6.408;2023-03-21T14:58:46;0.80;;;0.80;;
50002;SDS011;35889;51.442;6.408;2023-03-21T15:01:15;0.80;;;0.80;;
50002;SDS011;35889;51.442;6.408;2023-03-21T15:03:46;0.80;;;0.80;;
50002;SDS011;35889;51.442;6.408;2023-03-21T15:06:14;0.80;;;0.80;;
50002;SDS011;35889;51.442;6.408;2023-03-21T15:08:51;0.73;;;0.73;;
50002;SDS011;35889;51.442;6.408;2023-03-21T15:11:27;0.70;;;0.70;;
50002;SDS011;35889;51.442;6.408;2023-03-21T15:14:13;0.70;;;0.70;;
50002;SDS011;35889;51.442;6.408;2023-03-21T15:16:39;0.70;;;0.70;;
50002;SDS011;35889;51.442;6.408;2023-03-21T15:19:04;0.73;;;0.73;;
50002;SDS011;35889;51.442;6.408;2023-03-21T15:21:31;0.80;;;0.80;;
50002;SDS011;35889;51.442;6.408;2023-03-21T15:24:10;0.80;;;0.80;;
50002;SDS011;35889;51.442;6.408;2023-03-21T15:26:43;0.80;;;0.80;;
50002;SDS011;35889;51.442;6.408;2023-03-21T15:29:10;0.70;;;0.70;;
50002;SDS011;35889;51.442;6.408;2023-03-21T15:31:38;0.75;;;0.75;;
50002;SDS011;35889;51.442;6.408;2023-03-21T15:34:05;0.80;;;0.80;;
50002;SDS011;35889;51.442;6.408;2023-03-21T15:36:32;0.80;;;0.80;;
50002;SDS011;35889;51.442;6.408;2023-03-21T15:39:10;0.70;;;0.70;;
50002;SDS011;35889;51.442;6.408;2023-03-21T15:41:38;0.70;;;0.70;;
50002;SDS011;35889;51.442;6.408;2023-03-21T15:44:05;0.80;;;0.80;;
50002;SDS011;35889;51.442;6.408;2023-03-21T15:46:39;0.70;;;0.70;;
50002;SDS011;35889;51.442;6.408;2023-03-21T15:51:55;0.80;;;0.80;;
50002;SDS011;35889;51.442;6.408;2023-03-21T15:54:32;0.80;;;0.80;;
50002;SDS011;35889;51.442;6.408;2023-03-21T15:57:05;0.70;;;0.70;;
50002;SDS011;35889;51.442;6.408;2023-03-21T15:59:43;0.70;;;0.70;;
50002;SDS011;35889;51.442;6.408;2023-03-21T16:02:21;0.77;;;0.77;;
50002;SDS011;35889;51.442;6.408;2023-03-21T16:04:58;0.80;;;0.80;;
50002;SDS011;35889;51.442;6.408;2023-03-21T16:07:45;0.80;;;0.80;;
50002;SDS011;35889;51.442;6.408;2023-03-21T16:10:25;0.70;;;0.70;;
50002;SDS011;35889;51.442;6.408;2023-03-21T16:12:53;0.80;;;0.80;;
50002;SDS011;35889;51.442;6.408;2023-03-21T16:15:19;0.80;;;0.80;;
50002;SDS011;35889;51.442;6.408;2023-03-21T16:17:49;0.80;;;0.80;;
50002;SDS011;35889;51.442;6.408;2023-03-21T16:20:21;0.80;;;0.80;;
50002;SDS011;35889;51.442;6.408;2023-03-21T16:22:51;0.80;;;0.80;;
50002;SDS011;35889;51.442;6.408;2023-03-21T16:25:17;0.80;;;0.80;;
50002;SDS011;35889;51.442;6.408;2023-03-21T16:27:43;0.70;;;0.70;;
50002;SDS011;35889;51.442;6.408;2023-03-21T16:30:10;0.80;;;0.80;;
50002;SDS011;35889;51.442;6.408;2023-03-21T16:32:37;0.90;;;0.90;;
50002;SDS011;35889;51.442;6.408;2023-03-21T16:35:03;0.80;;;0.80;;
50002;SDS011;35889;51.442;6.408;2023-03-21T16:37:29;0.75;;;0.75;;
50002;SDS011;35889;51.442;6.408;2023-03-21T16:39:54;0.80;;;0.80;;
50002;SDS011;35889;51.442;6.408;2023-03-21T16:42:20;0.80;;;0.80;;